createdAt,value
2023-03-29T00:01:10.475Z,6.00
2023-03-29T00:03:40.343Z,8.50
2023-03-29T00:06:09.834Z,7.80
2023-03-29T00:08:38.471Z,6.10
2023-03-29T00:11:08.334Z,5.10
2023-03-29T00:13:36.699Z,6.20
2023-03-29T00:16:05.167Z,5.00
2023-03-29T00:18:33.362Z,5.30
2023-03-29T00:21:02.066Z,7.10
2023-03-29T00:23:32.720Z,5.70
2023-03-29T00:26:01.242Z,7.20
2023-03-29T00:28:29.931Z,4.90
2023-03-29T00:31:10.415Z,6.90
2023-03-29T00:33:40.192Z,8.90
2023-03-29T00:36:10.440Z,5.60
2023-03-29T00:38:40.124Z,6.10
2023-03-29T00:41:09.116Z,5.20
2023-03-29T00:44:00.508Z,5.10
2023-03-29T00:46:30.635Z,5.10
2023-03-29T00:49:05.427Z,6.60
2023-03-29T00:51:37.454Z,5.10
2023-03-29T00:54:14.933Z,8.50
2023-03-29T00:56:47.552Z,4.30
2023-03-29T00:59:21.769Z,4.40
2023-03-29T01:01:54.603Z,4.70
2023-03-29T01:04:29.528Z,5.30
2023-03-29T01:07:07.356Z,6.20
2023-03-29T01:09:40.175Z,5.90
2023-03-29T01:12:17.245Z,5.70
2023-03-29T01:15:11.468Z,6.40
2023-03-29T01:17:43.426Z,4.00
2023-03-29T01:20:20.361Z,5.10
2023-03-29T01:23:02.782Z,4.90
2023-03-29T01:25:42.303Z,6.90
2023-03-29T01:28:14.948Z,5.80
2023-03-29T01:30:55.148Z,4.70
2023-03-29T01:33:28.434Z,7.30
2023-03-29T01:36:08.135Z,7.30
2023-03-29T01:38:49.711Z,5.10
2023-03-29T01:41:17.912Z,10.60
2023-03-29T01:43:56.930Z,6.50
2023-03-29T01:46:45.097Z,8.20
2023-03-29T01:49:19.528Z,8.10
2023-03-29T01:52:00.036Z,6.10
2023-03-29T01:54:54.980Z,5.40
2023-03-29T01:57:25.145Z,6.10
2023-03-29T01:59:57.788Z,4.90
2023-03-29T02:02:30.582Z,5.90
2023-03-29T02:05:00.274Z,4.90
2023-03-29T02:07:32.377Z,7.90
2023-03-29T02:10:02.232Z,5.50
2023-03-29T02:12:31.275Z,7.60
2023-03-29T02:15:01.047Z,6.90
2023-03-29T02:17:30.593Z,6.00
2023-03-29T02:20:14.197Z,5.00
2023-03-29T02:22:52.263Z,5.10
2023-03-29T02:25:22.629Z,4.80
2023-03-29T02:27:52.914Z,6.00
2023-03-29T02:30:21.654Z,7.20
2023-03-29T02:32:56.053Z,6.90
2023-03-29T02:35:35.170Z,5.90
2023-03-29T02:38:06.528Z,6.50
2023-03-29T02:40:37.794Z,6.30
2023-03-29T02:43:09.326Z,9.90
2023-03-29T02:45:40.066Z,6.10
2023-03-29T02:48:12.252Z,5.80
2023-03-29T02:50:43.114Z,4.70
2023-03-29T02:53:17.908Z,5.50
2023-03-29T02:55:47.032Z,5.60
2023-03-29T02:58:15.725Z,6.80
2023-03-29T03:00:49.190Z,5.80
2023-03-29T03:03:17.542Z,6.30
2023-03-29T03:05:47.883Z,5.10
2023-03-29T03:08:16.141Z,4.20
2023-03-29T03:10:45.928Z,5.50
2023-03-29T03:13:14.178Z,5.60
2023-03-29T03:15:42.990Z,4.80
2023-03-29T03:18:12.822Z,4.10
2023-03-29T03:20:41.211Z,6.50
2023-03-29T03:23:09.875Z,6.70
2023-03-29T03:25:38.528Z,7.90
2023-03-29T03:28:06.740Z,7.80
2023-03-29T03:30:34.984Z,5.70
2023-03-29T03:33:22.662Z,5.40
2023-03-29T03:36:11.432Z,7.30
2023-03-29T03:38:40.200Z,6.00
2023-03-29T03:41:09.175Z,5.80
2023-03-29T03:43:37.567Z,5.80
2023-03-29T03:46:05.880Z,4.40
2023-03-29T03:48:34.186Z,13.70
2023-03-29T03:51:18.503Z,10.30
2023-03-29T03:53:47.050Z,10.00
2023-03-29T03:56:16.442Z,12.50
2023-03-29T03:59:05.319Z,10.20
2023-03-29T04:01:48.417Z,6.00
2023-03-29T04:04:19.852Z,6.70
2023-03-29T04:07:13.291Z,16.80
2023-03-29T04:10:00.494Z,31.40
2023-03-29T04:12:40.982Z,12.60
2023-03-29T04:15:10.543Z,10.10
2023-03-29T04:17:40.830Z,8.40
2023-03-29T04:20:28.232Z,7.60
2023-03-29T04:22:56.576Z,11.70
2023-03-29T04:25:25.331Z,7.10
2023-03-29T04:28:13.544Z,9.10
2023-03-29T04:30:58.182Z,9.60
2023-03-29T04:33:47.542Z,8.90
2023-03-29T04:36:16.244Z,9.50
2023-03-29T04:38:47.371Z,9.40
2023-03-29T04:41:16.846Z,12.10
2023-03-29T04:43:59.202Z,14.40
2023-03-29T04:46:33.055Z,14.00
2023-03-29T04:49:20.249Z,17.20
2023-03-29T04:51:51.591Z,11.00
2023-03-29T04:54:22.090Z,11.30
2023-03-29T04:57:17.288Z,16.70
2023-03-29T05:00:15.904Z,14.10
2023-03-29T05:03:11.790Z,14.30
2023-03-29T05:05:44.450Z,14.40
2023-03-29T05:08:12.814Z,18.70
2023-03-29T05:11:11.851Z,13.40
2023-03-29T05:13:40.233Z,14.00
2023-03-29T05:16:09.063Z,13.60
2023-03-29T05:18:37.549Z,33.50
2023-03-29T05:21:06.715Z,13.20
2023-03-29T05:23:36.284Z,14.30
2023-03-29T05:26:23.749Z,14.50
2023-03-29T05:28:54.518Z,18.40
2023-03-29T05:31:26.776Z,17.40
2023-03-29T05:33:56.201Z,12.00
2023-03-29T05:36:25.004Z,12.80
2023-03-29T05:38:53.295Z,16.40
2023-03-29T05:41:23.918Z,11.60
2023-03-29T05:44:26.473Z,10.30
2023-03-29T05:46:59.958Z,13.50
2023-03-29T05:49:28.311Z,13.00
2023-03-29T05:52:06.821Z,12.90
2023-03-29T05:54:37.781Z,17.60
2023-03-29T05:57:09.083Z,27.70
2023-03-29T05:59:38.605Z,10.90
2023-03-29T06:02:07.474Z,12.20
2023-03-29T06:04:37.515Z,12.50
2023-03-29T06:07:24.768Z,13.90
2023-03-29T06:10:12.584Z,10.40
2023-03-29T06:12:43.069Z,10.50
2023-03-29T06:15:13.357Z,10.00
2023-03-29T06:17:53.747Z,12.50
2023-03-29T06:20:22.866Z,11.30
2023-03-29T06:22:54.737Z,12.00
2023-03-29T06:25:25.119Z,12.50
2023-03-29T06:27:54.307Z,12.90
2023-03-29T06:30:22.839Z,11.80
2023-03-29T06:32:54.867Z,13.00
2023-03-29T06:35:48.688Z,12.00
2023-03-29T06:41:03.894Z,11.40
2023-03-29T06:43:43.854Z,7.90
2023-03-29T06:46:17.215Z,10.60
2023-03-29T06:48:56.672Z,8.60
2023-03-29T06:51:31.560Z,8.80
2023-03-29T06:54:00.330Z,15.00
2023-03-29T06:56:29.996Z,16.00
2023-03-29T06:59:08.634Z,27.70
2023-03-29T07:01:47.405Z,22.50
2023-03-29T07:04:24.805Z,9.10
2023-03-29T07:07:20.532Z,13.70
2023-03-29T07:09:55.526Z,5.50
2023-03-29T07:12:48.584Z,7.70
2023-03-29T07:15:21.773Z,6.90
2023-03-29T07:18:22.381Z,9.00
2023-03-29T07:20:52.276Z,5.80
2023-03-29T07:23:20.579Z,7.50
2023-03-29T07:25:50.649Z,7.90
2023-03-29T07:28:20.530Z,5.70
2023-03-29T07:30:51.615Z,9.30
2023-03-29T07:33:26.394Z,10.60
2023-03-29T07:36:02.171Z,10.20
2023-03-29T07:38:32.665Z,14.80
2023-03-29T07:41:11.790Z,10.30
2023-03-29T07:43:52.047Z,19.30
2023-03-29T07:46:25.171Z,11.90
2023-03-29T07:48:53.916Z,8.70
2023-03-29T07:51:24.569Z,13.00
2023-03-29T07:54:03.895Z,14.10
2023-03-29T07:56:51.168Z,32.80
2023-03-29T07:59:23.739Z,14.20
2023-03-29T08:02:11.104Z,13.40
2023-03-29T08:04:48.542Z,8.60
2023-03-29T08:07:21.719Z,14.40
2023-03-29T08:10:21.187Z,12.00
2023-03-29T08:13:07.491Z,11.50
2023-03-29T08:16:09.303Z,7.40
2023-03-29T08:18:43.991Z,6.50
2023-03-29T08:21:19.889Z,7.20
2023-03-29T08:23:55.122Z,6.40
2023-03-29T08:26:31.622Z,5.30
2023-03-29T08:29:00.798Z,6.70
2023-03-29T08:31:30.857Z,6.30
2023-03-29T08:34:00.235Z,5.40
2023-03-29T08:36:44.766Z,6.70
2023-03-29T08:39:20.600Z,6.60
2023-03-29T08:41:58.551Z,6.40
2023-03-29T08:44:50.395Z,5.70
2023-03-29T08:47:42.469Z,6.30
2023-03-29T08:50:14.201Z,6.10
2023-03-29T08:52:55.984Z,6.10
2023-03-29T08:55:49.761Z,6.00
2023-03-29T08:58:33.805Z,7.80
2023-03-29T09:01:06.326Z,6.40
2023-03-29T09:03:48.047Z,7.80
2023-03-29T09:06:23.122Z,17.40
2023-03-29T09:08:53.610Z,30.90
2023-03-29T09:11:33.688Z,9.60
2023-03-29T09:14:23.630Z,13.20
2023-03-29T09:17:20.546Z,4.00
2023-03-29T09:20:28.200Z,7.80
2023-03-29T09:25:54.244Z,5.80
2023-03-29T09:28:38.453Z,4.60
2023-03-29T09:31:21.597Z,9.70
2023-03-29T09:34:00.045Z,5.80
2023-03-29T09:36:43.556Z,7.00
2023-03-29T09:39:15.172Z,4.90
2023-03-29T09:41:59.095Z,4.70
2023-03-29T09:44:33.602Z,4.30
2023-03-29T09:47:29.755Z,8.10
2023-03-29T09:50:19.849Z,6.10
2023-03-29T09:52:56.704Z,6.40
2023-03-29T09:55:29.620Z,10.80
2023-03-29T09:58:16.534Z,6.00
2023-03-29T10:00:48.737Z,4.00
2023-03-29T10:03:24.068Z,4.80
2023-03-29T10:06:14.810Z,7.90
2023-03-29T10:08:59.163Z,10.70
2023-03-29T10:14:18.387Z,6.10
2023-03-29T10:16:54.711Z,4.40
2023-03-29T10:19:34.549Z,6.20
2023-03-29T10:22:14.744Z,6.80
2023-03-29T10:24:49.328Z,5.50
2023-03-29T10:27:23.441Z,10.50
2023-03-29T10:29:52.411Z,5.90
2023-03-29T10:32:20.589Z,4.50
2023-03-29T10:34:50.490Z,5.20
2023-03-29T10:37:21.283Z,5.40
2023-03-29T10:39:50.802Z,7.80
2023-03-29T10:42:23.790Z,5.50
2023-03-29T10:44:58.064Z,5.70
2023-03-29T10:49:58.991Z,4.80
2023-03-29T10:52:30.207Z,5.80
2023-03-29T10:55:00.235Z,5.30
2023-03-29T10:57:50.205Z,24.80
2023-03-29T11:00:58.058Z,7.70
2023-03-29T11:03:44.907Z,5.80
2023-03-29T11:06:32.701Z,10.10
2023-03-29T11:09:16.210Z,4.60
2023-03-29T11:12:12.170Z,6.10
2023-03-29T11:15:03.158Z,5.50
2023-03-29T11:17:51.377Z,8.80
2023-03-29T11:20:32.767Z,7.20
2023-03-29T11:23:30.647Z,8.60
2023-03-29T11:26:23.970Z,8.90
2023-03-29T11:29:16.463Z,7.70
2023-03-29T11:32:00.456Z,7.10
2023-03-29T11:34:59.637Z,5.70
2023-03-29T11:37:33.012Z,8.40
2023-03-29T11:40:32.168Z,9.90
2023-03-29T11:43:04.649Z,9.70
2023-03-29T11:45:40.056Z,10.00
2023-03-29T11:48:17.714Z,14.90
2023-03-29T11:50:57.841Z,7.40
2023-03-29T11:54:24.949Z,7.90
2023-03-29T11:57:04.562Z,7.10
2023-03-29T11:59:52.248Z,11.00
2023-03-29T12:03:00.016Z,12.80
2023-03-29T12:05:42.225Z,10.60
2023-03-29T12:08:13.121Z,10.20
2023-03-29T12:10:46.317Z,10.00
2023-03-29T12:13:30.422Z,11.30
2023-03-29T12:16:10.082Z,10.50
2023-03-29T12:18:45.890Z,10.20
2023-03-29T12:21:21.862Z,9.50
2023-03-29T12:23:52.377Z,8.00
2023-03-29T12:26:45.914Z,11.30
2023-03-29T12:29:32.254Z,8.20
2023-03-29T12:32:28.778Z,7.20
2023-03-29T12:35:06.606Z,7.60
2023-03-29T12:38:05.064Z,7.90
2023-03-29T12:41:02.156Z,7.90
2023-03-29T12:43:54.409Z,7.60
2023-03-29T12:46:34.616Z,10.20
2023-03-29T12:49:23.652Z,8.90
2023-03-29T12:51:53.165Z,6.20
2023-03-29T12:54:27.495Z,7.50
2023-03-29T12:57:01.536Z,7.40
2023-03-29T12:59:38.819Z,12.30
2023-03-29T13:02:14.147Z,10.00
2023-03-29T13:04:50.231Z,13.10
2023-03-29T13:07:26.535Z,11.00
2023-03-29T13:09:59.984Z,9.00
2023-03-29T13:12:42.316Z,9.90
2023-03-29T13:15:19.518Z,15.40
2023-03-29T13:18:11.675Z,6.70
2023-03-29T13:20:50.875Z,10.20
2023-03-29T13:23:25.104Z,7.40
2023-03-29T13:26:11.615Z,10.00
2023-03-29T13:29:15.600Z,12.60
2023-03-29T13:31:53.960Z,13.60
2023-03-29T13:34:55.103Z,11.30
2023-03-29T13:37:28.961Z,8.30
2023-03-29T13:39:57.281Z,12.70
2023-03-29T13:42:25.517Z,8.80
2023-03-29T13:45:14.200Z,9.50
2023-03-29T13:47:54.507Z,8.40
2023-03-29T13:50:40.823Z,11.20
2023-03-29T13:53:28.150Z,9.50
2023-03-29T13:55:58.550Z,6.70
2023-03-29T13:58:38.729Z,11.20
2023-03-29T14:01:35.226Z,8.70
2023-03-29T14:04:06.000Z,10.20
2023-03-29T14:06:37.640Z,65.70
2023-03-29T14:09:08.894Z,14.80
2023-03-29T14:11:37.075Z,6.50
2023-03-29T14:14:08.562Z,13.50
2023-03-29T14:16:39.223Z,8.00
2023-03-29T14:19:29.997Z,7.40
2023-03-29T14:22:01.129Z,9.20
2023-03-29T14:24:39.232Z,11.40
2023-03-29T14:27:10.375Z,9.30
2023-03-29T14:29:38.823Z,8.70
2023-03-29T14:32:13.944Z,11.00
2023-03-29T14:34:43.247Z,7.10
2023-03-29T14:37:18.828Z,7.60
2023-03-29T14:39:47.120Z,10.00
2023-03-29T14:42:22.285Z,8.00
2023-03-29T14:44:51.150Z,8.80
2023-03-29T14:47:31.610Z,13.70
2023-03-29T14:50:01.872Z,15.30
2023-03-29T14:52:32.246Z,9.50
2023-03-29T14:55:02.373Z,8.70
2023-03-29T14:57:39.593Z,11.10
2023-03-29T15:00:39.479Z,11.50
2023-03-29T15:03:14.441Z,8.80
2023-03-29T15:05:47.675Z,9.60
2023-03-29T15:08:23.622Z,9.20
2023-03-29T15:10:52.250Z,9.10
2023-03-29T15:13:24.674Z,10.10
2023-03-29T15:15:57.389Z,9.70
2023-03-29T15:18:39.647Z,10.20
2023-03-29T15:21:09.288Z,10.50
2023-03-29T15:23:41.337Z,8.40
2023-03-29T15:26:14.812Z,10.10
2023-03-29T15:28:49.734Z,10.60
2023-03-29T15:31:20.176Z,12.90
2023-03-29T15:33:48.323Z,12.00
2023-03-29T15:36:16.782Z,10.00
2023-03-29T15:38:49.500Z,9.40
2023-03-29T15:41:17.702Z,14.50
2023-03-29T15:43:46.792Z,19.80
2023-03-29T15:46:16.540Z,11.70
2023-03-29T15:48:44.830Z,12.20
2023-03-29T15:51:13.146Z,11.00
2023-03-29T15:53:41.629Z,12.70
2023-03-29T15:56:15.889Z,12.40
2023-03-29T16:01:37.826Z,15.50
2023-03-29T16:04:17.841Z,13.60
2023-03-29T16:06:52.897Z,16.20
2023-03-29T16:09:22.622Z,13.50
2023-03-29T16:11:51.160Z,16.10
2023-03-29T16:14:27.050Z,9.60
2023-03-29T16:16:57.358Z,11.20
2023-03-29T16:19:27.272Z,14.40
2023-03-29T16:21:55.997Z,14.40
2023-03-29T16:24:29.839Z,18.70
2023-03-29T16:26:59.727Z,17.30
2023-03-29T16:29:28.293Z,14.80
2023-03-29T16:31:57.354Z,12.60
2023-03-29T16:34:26.852Z,16.90
2023-03-29T16:36:55.023Z,16.90
2023-03-29T16:39:23.186Z,16.20
2023-03-29T16:41:51.362Z,21.50
2023-03-29T16:44:27.015Z,15.20
2023-03-29T16:46:57.549Z,14.10
2023-03-29T16:49:25.695Z,14.00
2023-03-29T16:51:53.906Z,17.30
2023-03-29T16:54:25.781Z,15.10
2023-03-29T16:56:54.236Z,15.40
2023-03-29T16:59:22.524Z,16.40
2023-03-29T17:01:50.840Z,18.90
2023-03-29T17:04:19.270Z,18.90
2023-03-29T17:06:47.619Z,21.00
2023-03-29T17:09:17.728Z,24.00
2023-03-29T17:11:46.410Z,94.60
2023-03-29T17:14:14.654Z,63.50
2023-03-29T17:16:42.926Z,34.20
2023-03-29T17:19:11.389Z,24.20
2023-03-29T17:21:39.767Z,20.80
2023-03-29T17:24:09.761Z,17.80
2023-03-29T17:26:38.311Z,20.00
2023-03-29T17:29:06.615Z,19.50
2023-03-29T17:31:36.347Z,17.80
2023-03-29T17:34:04.435Z,18.30
2023-03-29T17:36:34.878Z,14.20
2023-03-29T17:39:04.486Z,18.50
2023-03-29T17:41:32.666Z,29.40
2023-03-29T17:44:01.294Z,22.20
2023-03-29T17:46:29.622Z,19.60
2023-03-29T17:48:59.311Z,18.40
2023-03-29T17:51:27.980Z,14.30
2023-03-29T17:53:57.265Z,18.30
2023-03-29T17:56:26.695Z,18.80
2023-03-29T17:58:58.483Z,17.90
2023-03-29T18:01:26.651Z,13.00
2023-03-29T18:03:55.002Z,22.40
2023-03-29T18:06:23.255Z,11.60
2023-03-29T18:08:53.397Z,15.00
2023-03-29T18:11:24.661Z,15.00
2023-03-29T18:13:53.690Z,23.30
2023-03-29T18:16:22.497Z,21.70
2023-03-29T18:18:51.089Z,25.20
2023-03-29T18:21:20.288Z,28.80
2023-03-29T18:23:50.640Z,25.60
2023-03-29T18:26:19.104Z,25.60
2023-03-29T18:28:51.106Z,31.40
2023-03-29T18:31:20.005Z,36.00
2023-03-29T18:33:48.425Z,42.10
2023-03-29T18:36:16.932Z,42.60
2023-03-29T18:38:45.863Z,40.50
2023-03-29T18:41:17.155Z,41.10
2023-03-29T18:43:46.851Z,35.20
2023-03-29T18:46:15.192Z,39.60
2023-03-29T18:48:43.380Z,38.60
2023-03-29T18:51:12.712Z,28.60
2023-03-29T18:53:43.134Z,32.20
2023-03-29T18:56:11.544Z,32.60
2023-03-29T18:58:39.919Z,28.80
2023-03-29T19:01:09.765Z,43.50
2023-03-29T19:03:38.125Z,35.90
2023-03-29T19:06:07.999Z,42.70
2023-03-29T19:08:38.850Z,44.80
2023-03-29T19:11:09.398Z,73.40
2023-03-29T19:13:37.896Z,121.30
2023-03-29T19:16:06.392Z,113.90
2023-03-29T19:18:34.833Z,119.40
2023-03-29T19:21:03.078Z,118.00
2023-03-29T19:23:31.622Z,116.60
2023-03-29T19:26:05.739Z,85.40
2023-03-29T19:28:34.647Z,71.10
2023-03-29T19:31:04.279Z,63.70
2023-03-29T19:33:33.090Z,59.90
2023-03-29T19:36:01.641Z,72.60
2023-03-29T19:38:30.168Z,78.20
2023-03-29T19:40:58.369Z,71.40
2023-03-29T19:43:27.183Z,61.30
2023-03-29T19:45:55.447Z,48.10
2023-03-29T19:48:24.208Z,42.20
2023-03-29T19:50:53.106Z,41.50
2023-03-29T19:53:23.246Z,32.70
2023-03-29T19:55:52.543Z,30.90
2023-03-29T19:58:21.736Z,19.30
2023-03-29T20:00:53.315Z,18.90
2023-03-29T20:03:23.248Z,18.30
2023-03-29T20:05:51.523Z,18.30
2023-03-29T20:08:19.655Z,28.70
2023-03-29T20:10:47.965Z,21.80
2023-03-29T20:13:24.536Z,21.60
2023-03-29T20:15:59.923Z,61.20
2023-03-29T20:18:28.275Z,33.80
2023-03-29T20:20:56.398Z,38.10
2023-03-29T20:23:24.653Z,40.20
2023-03-29T20:25:53.563Z,58.30
2023-03-29T20:28:21.670Z,61.00
2023-03-29T20:30:51.436Z,44.30
2023-03-29T20:33:21.546Z,48.90
2023-03-29T20:35:49.928Z,60.70
2023-03-29T20:38:18.168Z,47.00
2023-03-29T20:40:46.396Z,36.00
2023-03-29T20:43:18.392Z,39.90
2023-03-29T20:45:53.822Z,39.40
2023-03-29T20:48:24.327Z,39.30
2023-03-29T20:50:52.655Z,36.10
2023-03-29T20:53:20.886Z,46.20
2023-03-29T20:55:49.116Z,41.00
2023-03-29T20:58:17.782Z,34.80
2023-03-29T21:00:46.906Z,45.80
2023-03-29T21:03:15.232Z,32.70
2023-03-29T21:05:43.628Z,41.30
2023-03-29T21:08:11.777Z,46.60
2023-03-29T21:10:42.490Z,63.00
2023-03-29T21:13:10.786Z,45.80
2023-03-29T21:15:40.657Z,34.60
2023-03-29T21:18:09.000Z,31.90
2023-03-29T21:20:37.969Z,24.10
2023-03-29T21:23:06.326Z,15.20
2023-03-29T21:25:34.351Z,24.50
2023-03-29T21:28:02.439Z,19.20
2023-03-29T21:30:32.035Z,23.90
2023-03-29T21:33:00.836Z,25.90
2023-03-29T21:35:29.004Z,29.80
2023-03-29T21:37:57.283Z,28.50
2023-03-29T21:40:25.863Z,32.30
2023-03-29T21:42:54.143Z,36.70
2023-03-29T21:45:22.592Z,33.60
2023-03-29T21:47:51.338Z,37.10
2023-03-29T21:50:19.541Z,38.90
2023-03-29T21:52:48.725Z,41.90
2023-03-29T21:55:19.652Z,49.50
2023-03-29T21:57:48.412Z,62.80
2023-03-29T22:00:18.069Z,56.10
2023-03-29T22:02:46.765Z,38.10
2023-03-29T22:05:16.350Z,35.40
2023-03-29T22:07:44.719Z,19.40
2023-03-29T22:10:13.077Z,32.50
2023-03-29T22:12:41.531Z,24.90
2023-03-29T22:15:15.084Z,15.20
2023-03-29T22:17:43.475Z,30.20
2023-03-29T22:20:15.011Z,23.20
2023-03-29T22:22:45.861Z,25.30
2023-03-29T22:25:14.448Z,24.30
2023-03-29T22:27:46.996Z,18.00
2023-03-29T22:30:16.446Z,15.60
2023-03-29T22:32:45.068Z,23.80
2023-03-29T22:35:13.261Z,23.80
2023-03-29T22:37:43.693Z,18.20
2023-03-29T22:40:13.439Z,30.60
2023-03-29T22:42:41.749Z,23.60
2023-03-29T22:45:11.055Z,27.70
2023-03-29T22:47:39.232Z,29.80
2023-03-29T22:50:08.313Z,21.50
2023-03-29T22:52:36.498Z,15.80
2023-03-29T22:55:05.012Z,21.50
2023-03-29T22:57:33.220Z,23.20
2023-03-29T23:00:01.787Z,30.00
2023-03-29T23:02:29.944Z,19.90
2023-03-29T23:04:58.282Z,27.00
2023-03-29T23:07:28.129Z,21.30
2023-03-29T23:09:56.608Z,17.60
2023-03-29T23:12:24.728Z,16.60
2023-03-29T23:14:53.142Z,26.60
2023-03-29T23:17:21.508Z,27.10
2023-03-29T23:19:49.646Z,25.60
2023-03-29T23:22:17.694Z,27.50
2023-03-29T23:24:47.433Z,24.40
2023-03-29T23:27:15.763Z,19.20
2023-03-29T23:29:45.328Z,12.30
2023-03-29T23:32:15.759Z,19.90
2023-03-29T23:34:44.681Z,23.60
2023-03-29T23:37:12.956Z,24.50
2023-03-29T23:39:41.641Z,16.30
2023-03-29T23:42:10.647Z,29.80
2023-03-29T23:44:42.588Z,29.10
2023-03-29T23:47:14.075Z,13.60
2023-03-29T23:49:42.204Z,15.40
2023-03-29T23:52:10.465Z,19.00
2023-03-29T23:54:38.585Z,36.20
2023-03-29T23:57:10.952Z,27.20
2023-03-29T23:59:40.122Z,16.10
